sensor_id;sensor_type;location;lat;lon;timestamp;P1;durP1;ratioP1;P2;durP2;ratioP2
33150;SDS011;19508;42.578;23.416;2022-08-03T00:00:43;11.48;;;7.90;;
33150;SDS011;19508;42.578;23.416;2022-08-03T00:03:09;9.88;;;6.00;;
33150;SDS011;19508;42.578;23.416;2022-08-03T00:05:36;12.82;;;8.10;;
33150;SDS011;19508;42.578;23.416;2022-08-03T00:08:02;9.27;;;5.82;;
33150;SDS011;19508;42.578;23.416;2022-08-03T00:10:27;5.97;;;3.70;;
33150;SDS011;19508;42.578;23.416;2022-08-03T00:15:45;6.05;;;1.73;;
33150;SDS011;19508;42.578;23.416;2022-08-03T00:18:11;4.20;;;1.75;;
33150;SDS011;19508;42.578;23.416;2022-08-03T00:20:38;5.90;;;1.75;;
33150;SDS011;19508;42.578;23.416;2022-08-03T00:23:04;1.63;;;1.50;;
33150;SDS011;19508;42.578;23.416;2022-08-03T00:25:30;5.43;;;1.92;;
33150;SDS011;19508;42.578;23.416;2022-08-03T00:27:57;6.28;;;1.50;;
33150;SDS011;19508;42.578;23.416;2022-08-03T00:30:22;1.55;;;1.45;;
33150;SDS011;19508;42.578;23.416;2022-08-03T00:32:53;4.75;;;1.50;;
33150;SDS011;19508;42.578;23.416;2022-08-03T00:35:19;6.78;;;1.45;;
33150;SDS011;19508;42.578;23.416;2022-08-03T00:37:45;2.08;;;1.63;;
33150;SDS011;19508;42.578;23.416;2022-08-03T00:40:11;1.70;;;1.30;;
33150;SDS011;19508;42.578;23.416;2022-08-03T00:42:45;2.10;;;1.30;;
33150;SDS011;19508;42.578;23.416;2022-08-03T00:45:25;1.65;;;1.40;;
33150;SDS011;19508;42.578;23.416;2022-08-03T00:47:55;1.67;;;1.27;;
33150;SDS011;19508;42.578;23.416;2022-08-03T00:50:23;2.33;;;1.50;;
33150;SDS011;19508;42.578;23.416;2022-08-03T00:52:51;1.85;;;1.42;;
33150;SDS011;19508;42.578;23.416;2022-08-03T00:55:18;1.35;;;1.20;;
33150;SDS011;19508;42.578;23.416;2022-08-03T00:58:03;1.88;;;1.40;;
33150;SDS011;19508;42.578;23.416;2022-08-03T01:00:43;2.25;;;1.25;;
33150;SDS011;19508;42.578;23.416;2022-08-03T01:03:09;1.73;;;1.27;;
33150;SDS011;19508;42.578;23.416;2022-08-03T01:05:57;1.40;;;1.30;;
33150;SDS011;19508;42.578;23.416;2022-08-03T01:15:34;1.63;;;1.30;;
33150;SDS011;19508;42.578;23.416;2022-08-03T01:18:21;1.60;;;1.35;;
33150;SDS011;19508;42.578;23.416;2022-08-03T01:21:00;2.38;;;1.35;;
33150;SDS011;19508;42.578;23.416;2022-08-03T01:30:43;1.45;;;1.20;;
33150;SDS011;19508;42.578;23.416;2022-08-03T01:33:21;2.15;;;1.30;;
33150;SDS011;19508;42.578;23.416;2022-08-03T01:36:03;2.25;;;2.05;;
33150;SDS011;19508;42.578;23.416;2022-08-03T01:38:35;1.63;;;1.30;;
33150;SDS011;19508;42.578;23.416;2022-08-03T01:41:09;1.70;;;1.50;;
33150;SDS011;19508;42.578;23.416;2022-08-03T01:43:49;1.50;;;1.30;;
33150;SDS011;19508;42.578;23.416;2022-08-03T01:46:20;1.33;;;1.23;;
33150;SDS011;19508;42.578;23.416;2022-08-03T01:48:52;3.13;;;1.30;;
33150;SDS011;19508;42.578;23.416;2022-08-03T01:51:19;4.53;;;1.52;;
33150;SDS011;19508;42.578;23.416;2022-08-03T01:53:48;1.70;;;1.42;;
33150;SDS011;19508;42.578;23.416;2022-08-03T01:56:16;1.45;;;1.30;;
33150;SDS011;19508;42.578;23.416;2022-08-03T01:58:44;1.55;;;1.45;;
33150;SDS011;19508;42.578;23.416;2022-08-03T02:01:12;2.80;;;1.30;;
33150;SDS011;19508;42.578;23.416;2022-08-03T02:03:42;2.10;;;1.25;;
33150;SDS011;19508;42.578;23.416;2022-08-03T02:06:18;1.30;;;1.20;;
33150;SDS011;19508;42.578;23.416;2022-08-03T02:08:54;3.35;;;1.40;;
33150;SDS011;19508;42.578;23.416;2022-08-03T02:11:22;2.47;;;1.83;;
33150;SDS011;19508;42.578;23.416;2022-08-03T02:14:31;5.80;;;1.70;;
33150;SDS011;19508;42.578;23.416;2022-08-03T02:17:03;4.35;;;1.63;;
33150;SDS011;19508;42.578;23.416;2022-08-03T02:19:33;3.55;;;1.60;;
33150;SDS011;19508;42.578;23.416;2022-08-03T02:22:03;1.50;;;1.35;;
33150;SDS011;19508;42.578;23.416;2022-08-03T02:24:42;5.10;;;1.40;;
33150;SDS011;19508;42.578;23.416;2022-08-03T02:27:09;3.17;;;1.65;;
33150;SDS011;19508;42.578;23.416;2022-08-03T02:29:45;3.03;;;1.75;;
33150;SDS011;19508;42.578;23.416;2022-08-03T02:32:16;3.90;;;1.50;;
33150;SDS011;19508;42.578;23.416;2022-08-03T02:34:49;4.22;;;1.58;;
33150;SDS011;19508;42.578;23.416;2022-08-03T02:37:19;1.92;;;1.52;;
33150;SDS011;19508;42.578;23.416;2022-08-03T02:39:51;2.20;;;1.33;;
33150;SDS011;19508;42.578;23.416;2022-08-03T02:42:27;2.65;;;1.42;;
33150;SDS011;19508;42.578;23.416;2022-08-03T02:47:25;3.67;;;1.63;;
33150;SDS011;19508;42.578;23.416;2022-08-03T02:49:53;3.88;;;1.67;;
33150;SDS011;19508;42.578;23.416;2022-08-03T02:52:26;2.83;;;1.40;;
33150;SDS011;19508;42.578;23.416;2022-08-03T02:54:55;6.53;;;1.67;;
33150;SDS011;19508;42.578;23.416;2022-08-03T02:57:35;1.67;;;1.52;;
33150;SDS011;19508;42.578;23.416;2022-08-03T03:00:04;2.13;;;1.92;;
33150;SDS011;19508;42.578;23.416;2022-08-03T03:02:40;4.57;;;2.00;;
33150;SDS011;19508;42.578;23.416;2022-08-03T03:05:33;3.25;;;1.75;;
33150;SDS011;19508;42.578;23.416;2022-08-03T03:08:03;2.25;;;1.80;;
33150;SDS011;19508;42.578;23.416;2022-08-03T03:10:34;1.67;;;1.40;;
33150;SDS011;19508;42.578;23.416;2022-08-03T03:13:01;3.45;;;1.80;;
33150;SDS011;19508;42.578;23.416;2022-08-03T03:15:30;2.72;;;1.63;;
33150;SDS011;19508;42.578;23.416;2022-08-03T03:18:04;3.63;;;1.75;;
33150;SDS011;19508;42.578;23.416;2022-08-03T03:20:35;5.03;;;1.80;;
33150;SDS011;19508;42.578;23.416;2022-08-03T03:23:03;2.13;;;1.90;;
33150;SDS011;19508;42.578;23.416;2022-08-03T03:25:31;3.45;;;2.22;;
33150;SDS011;19508;42.578;23.416;2022-08-03T03:28:08;2.00;;;1.70;;
33150;SDS011;19508;42.578;23.416;2022-08-03T03:30:39;3.85;;;2.00;;
33150;SDS011;19508;42.578;23.416;2022-08-03T03:33:29;2.55;;;1.92;;
33150;SDS011;19508;42.578;23.416;2022-08-03T03:35:55;8.88;;;2.15;;
33150;SDS011;19508;42.578;23.416;2022-08-03T03:38:22;5.88;;;1.95;;
33150;SDS011;19508;42.578;23.416;2022-08-03T03:40:48;6.63;;;2.63;;
33150;SDS011;19508;42.578;23.416;2022-08-03T03:43:29;5.13;;;1.77;;
33150;SDS011;19508;42.578;23.416;2022-08-03T03:45:55;3.85;;;2.45;;
33150;SDS011;19508;42.578;23.416;2022-08-03T03:48:25;6.43;;;2.28;;
33150;SDS011;19508;42.578;23.416;2022-08-03T03:50:56;4.38;;;2.10;;
33150;SDS011;19508;42.578;23.416;2022-08-03T03:53:24;3.78;;;2.05;;
33150;SDS011;19508;42.578;23.416;2022-08-03T03:55:52;3.80;;;2.03;;
33150;SDS011;19508;42.578;23.416;2022-08-03T03:58:21;7.75;;;2.30;;
33150;SDS011;19508;42.578;23.416;2022-08-03T04:00:51;2.50;;;1.88;;
33150;SDS011;19508;42.578;23.416;2022-08-03T04:03:21;3.58;;;2.40;;
33150;SDS011;19508;42.578;23.416;2022-08-03T04:05:48;2.78;;;2.00;;
33150;SDS011;19508;42.578;23.416;2022-08-03T04:08:32;2.78;;;2.33;;
33150;SDS011;19508;42.578;23.416;2022-08-03T04:13:49;5.47;;;1.95;;
33150;SDS011;19508;42.578;23.416;2022-08-03T04:16:19;2.15;;;1.88;;
33150;SDS011;19508;42.578;23.416;2022-08-03T04:18:48;9.38;;;2.92;;
33150;SDS011;19508;42.578;23.416;2022-08-03T04:21:18;3.33;;;1.80;;
33150;SDS011;19508;42.578;23.416;2022-08-03T04:23:46;7.75;;;2.33;;
33150;SDS011;19508;42.578;23.416;2022-08-03T04:26:15;2.78;;;1.75;;
33150;SDS011;19508;42.578;23.416;2022-08-03T04:28:45;5.95;;;2.13;;
33150;SDS011;19508;42.578;23.416;2022-08-03T04:31:14;9.40;;;2.40;;
33150;SDS011;19508;42.578;23.416;2022-08-03T04:33:42;4.00;;;2.35;;
33150;SDS011;19508;42.578;23.416;2022-08-03T04:36:09;3.85;;;2.30;;
33150;SDS011;19508;42.578;23.416;2022-08-03T04:38:41;3.28;;;1.98;;
33150;SDS011;19508;42.578;23.416;2022-08-03T04:41:17;2.00;;;1.80;;
33150;SDS011;19508;42.578;23.416;2022-08-03T04:43:46;11.80;;;2.00;;
33150;SDS011;19508;42.578;23.416;2022-08-03T04:46:13;1.80;;;1.55;;
33150;SDS011;19508;42.578;23.416;2022-08-03T04:48:39;5.03;;;2.08;;
33150;SDS011;19508;42.578;23.416;2022-08-03T04:51:06;2.05;;;1.48;;
33150;SDS011;19508;42.578;23.416;2022-08-03T04:53:33;4.13;;;2.40;;
33150;SDS011;19508;42.578;23.416;2022-08-03T04:56:05;6.93;;;1.92;;
33150;SDS011;19508;42.578;23.416;2022-08-03T04:58:31;2.28;;;1.70;;
33150;SDS011;19508;42.578;23.416;2022-08-03T05:00:57;7.38;;;1.63;;
33150;SDS011;19508;42.578;23.416;2022-08-03T05:03:25;3.08;;;1.58;;
33150;SDS011;19508;42.578;23.416;2022-08-03T05:05:52;3.25;;;2.10;;
33150;SDS011;19508;42.578;23.416;2022-08-03T05:08:19;5.53;;;1.58;;
33150;SDS011;19508;42.578;23.416;2022-08-03T05:10:46;5.50;;;2.00;;
33150;SDS011;19508;42.578;23.416;2022-08-03T05:13:11;8.30;;;1.70;;
33150;SDS011;19508;42.578;23.416;2022-08-03T05:15:38;2.83;;;1.60;;
33150;SDS011;19508;42.578;23.416;2022-08-03T05:18:04;2.47;;;1.50;;
33150;SDS011;19508;42.578;23.416;2022-08-03T05:20:30;3.10;;;1.60;;
33150;SDS011;19508;42.578;23.416;2022-08-03T05:22:56;3.88;;;1.90;;
33150;SDS011;19508;42.578;23.416;2022-08-03T05:25:22;4.50;;;1.70;;
33150;SDS011;19508;42.578;23.416;2022-08-03T05:27:48;3.50;;;1.67;;
33150;SDS011;19508;42.578;23.416;2022-08-03T05:30:14;3.00;;;1.65;;
33150;SDS011;19508;42.578;23.416;2022-08-03T05:32:39;6.63;;;2.20;;
33150;SDS011;19508;42.578;23.416;2022-08-03T05:35:05;3.60;;;1.70;;
33150;SDS011;19508;42.578;23.416;2022-08-03T05:37:31;7.35;;;2.17;;
33150;SDS011;19508;42.578;23.416;2022-08-03T05:39:56;2.47;;;1.70;;
33150;SDS011;19508;42.578;23.416;2022-08-03T05:42:21;3.65;;;1.77;;
33150;SDS011;19508;42.578;23.416;2022-08-03T05:44:47;3.97;;;1.83;;
33150;SDS011;19508;42.578;23.416;2022-08-03T05:47:12;5.65;;;2.10;;
33150;SDS011;19508;42.578;23.416;2022-08-03T05:49:38;2.38;;;1.45;;
33150;SDS011;19508;42.578;23.416;2022-08-03T05:52:03;2.33;;;1.40;;
33150;SDS011;19508;42.578;23.416;2022-08-03T05:54:29;1.45;;;1.17;;
33150;SDS011;19508;42.578;23.416;2022-08-03T05:56:54;2.30;;;1.48;;
33150;SDS011;19508;42.578;23.416;2022-08-03T05:59:20;2.33;;;1.60;;
33150;SDS011;19508;42.578;23.416;2022-08-03T06:01:45;6.28;;;1.52;;
33150;SDS011;19508;42.578;23.416;2022-08-03T06:04:11;7.00;;;1.50;;
33150;SDS011;19508;42.578;23.416;2022-08-03T06:06:37;7.68;;;1.80;;
33150;SDS011;19508;42.578;23.416;2022-08-03T06:09:02;1.30;;;1.20;;
33150;SDS011;19508;42.578;23.416;2022-08-03T06:11:27;2.17;;;1.30;;
33150;SDS011;19508;42.578;23.416;2022-08-03T06:13:53;1.67;;;1.25;;
33150;SDS011;19508;42.578;23.416;2022-08-03T06:16:18;1.95;;;1.13;;
33150;SDS011;19508;42.578;23.416;2022-08-03T06:18:44;4.25;;;1.55;;
33150;SDS011;19508;42.578;23.416;2022-08-03T06:21:10;4.22;;;1.60;;
33150;SDS011;19508;42.578;23.416;2022-08-03T06:23:35;1.33;;;1.20;;
33150;SDS011;19508;42.578;23.416;2022-08-03T06:26:01;2.72;;;1.10;;
33150;SDS011;19508;42.578;23.416;2022-08-03T06:28:26;6.00;;;1.13;;
33150;SDS011;19508;42.578;23.416;2022-08-03T06:30:52;4.93;;;1.35;;
33150;SDS011;19508;42.578;23.416;2022-08-03T06:33:18;16.88;;;1.45;;
33150;SDS011;19508;42.578;23.416;2022-08-03T06:35:43;3.58;;;1.27;;
33150;SDS011;19508;42.578;23.416;2022-08-03T06:38:09;1.75;;;1.27;;
33150;SDS011;19508;42.578;23.416;2022-08-03T06:40:35;10.75;;;1.45;;
33150;SDS011;19508;42.578;23.416;2022-08-03T06:43:04;4.97;;;1.52;;
33150;SDS011;19508;42.578;23.416;2022-08-03T06:45:30;5.75;;;1.52;;
33150;SDS011;19508;42.578;23.416;2022-08-03T06:48:04;4.32;;;1.63;;
33150;SDS011;19508;42.578;23.416;2022-08-03T06:50:31;6.07;;;1.40;;
33150;SDS011;19508;42.578;23.416;2022-08-03T06:52:58;1.58;;;1.10;;
33150;SDS011;19508;42.578;23.416;2022-08-03T06:55:24;7.88;;;1.40;;
33150;SDS011;19508;42.578;23.416;2022-08-03T06:57:50;2.80;;;1.40;;
33150;SDS011;19508;42.578;23.416;2022-08-03T07:00:16;9.40;;;1.80;;
33150;SDS011;19508;42.578;23.416;2022-08-03T07:02:41;3.97;;;2.08;;
33150;SDS011;19508;42.578;23.416;2022-08-03T07:05:07;4.43;;;1.85;;
33150;SDS011;19508;42.578;23.416;2022-08-03T07:07:33;5.82;;;1.80;;
33150;SDS011;19508;42.578;23.416;2022-08-03T07:09:59;2.88;;;2.22;;
33150;SDS011;19508;42.578;23.416;2022-08-03T07:12:28;7.63;;;2.45;;
33150;SDS011;19508;42.578;23.416;2022-08-03T07:15:06;2.45;;;1.63;;
33150;SDS011;19508;42.578;23.416;2022-08-03T07:17:33;4.85;;;1.48;;
33150;SDS011;19508;42.578;23.416;2022-08-03T07:20:00;5.40;;;1.40;;
33150;SDS011;19508;42.578;23.416;2022-08-03T07:22:27;1.90;;;1.10;;
33150;SDS011;19508;42.578;23.416;2022-08-03T07:24:52;2.17;;;1.40;;
33150;SDS011;19508;42.578;23.416;2022-08-03T07:27:18;3.13;;;1.30;;
33150;SDS011;19508;42.578;23.416;2022-08-03T07:29:43;3.53;;;1.35;;
33150;SDS011;19508;42.578;23.416;2022-08-03T07:32:09;2.67;;;1.33;;
33150;SDS011;19508;42.578;23.416;2022-08-03T07:34:34;5.15;;;1.40;;
33150;SDS011;19508;42.578;23.416;2022-08-03T07:37:00;3.38;;;1.45;;
33150;SDS011;19508;42.578;23.416;2022-08-03T07:39:25;8.20;;;1.73;;
33150;SDS011;19508;42.578;23.416;2022-08-03T07:41:51;5.45;;;1.38;;
33150;SDS011;19508;42.578;23.416;2022-08-03T07:44:19;2.20;;;1.40;;
33150;SDS011;19508;42.578;23.416;2022-08-03T07:46:45;4.47;;;1.20;;
33150;SDS011;19508;42.578;23.416;2022-08-03T07:49:11;5.43;;;1.50;;
33150;SDS011;19508;42.578;23.416;2022-08-03T07:51:37;3.45;;;1.88;;
33150;SDS011;19508;42.578;23.416;2022-08-03T07:54:02;6.13;;;1.58;;
33150;SDS011;19508;42.578;23.416;2022-08-03T07:56:28;4.10;;;1.95;;
33150;SDS011;19508;42.578;23.416;2022-08-03T07:58:54;3.42;;;1.70;;
33150;SDS011;19508;42.578;23.416;2022-08-03T08:01:19;6.95;;;1.73;;
33150;SDS011;19508;42.578;23.416;2022-08-03T08:03:45;3.38;;;1.67;;
33150;SDS011;19508;42.578;23.416;2022-08-03T08:06:11;2.17;;;1.55;;
33150;SDS011;19508;42.578;23.416;2022-08-03T08:08:37;2.88;;;1.70;;
33150;SDS011;19508;42.578;23.416;2022-08-03T08:11:03;2.78;;;1.30;;
33150;SDS011;19508;42.578;23.416;2022-08-03T08:13:28;6.20;;;1.80;;
33150;SDS011;19508;42.578;23.416;2022-08-03T08:15:54;5.35;;;1.83;;
33150;SDS011;19508;42.578;23.416;2022-08-03T08:18:19;5.80;;;1.77;;
33150;SDS011;19508;42.578;23.416;2022-08-03T08:20:45;11.95;;;1.50;;
33150;SDS011;19508;42.578;23.416;2022-08-03T08:23:10;3.65;;;1.65;;
33150;SDS011;19508;42.578;23.416;2022-08-03T08:25:35;9.98;;;1.88;;
33150;SDS011;19508;42.578;23.416;2022-08-03T08:28:01;7.07;;;1.65;;
33150;SDS011;19508;42.578;23.416;2022-08-03T08:30:28;7.70;;;2.03;;
33150;SDS011;19508;42.578;23.416;2022-08-03T08:32:55;2.33;;;1.67;;
33150;SDS011;19508;42.578;23.416;2022-08-03T08:35:21;9.57;;;2.28;;
33150;SDS011;19508;42.578;23.416;2022-08-03T08:37:47;9.73;;;1.95;;
33150;SDS011;19508;42.578;23.416;2022-08-03T08:40:12;7.28;;;2.08;;
33150;SDS011;19508;42.578;23.416;2022-08-03T08:42:38;7.72;;;2.45;;
33150;SDS011;19508;42.578;23.416;2022-08-03T08:45:05;10.55;;;2.67;;
33150;SDS011;19508;42.578;23.416;2022-08-03T08:47:33;12.18;;;2.10;;
33150;SDS011;19508;42.578;23.416;2022-08-03T08:50:01;4.55;;;1.88;;
33150;SDS011;19508;42.578;23.416;2022-08-03T08:52:28;9.65;;;2.28;;
33150;SDS011;19508;42.578;23.416;2022-08-03T08:54:55;5.00;;;2.47;;
33150;SDS011;19508;42.578;23.416;2022-08-03T08:57:24;9.82;;;2.50;;
33150;SDS011;19508;42.578;23.416;2022-08-03T08:59:53;8.13;;;2.42;;
33150;SDS011;19508;42.578;23.416;2022-08-03T09:02:21;5.07;;;2.10;;
33150;SDS011;19508;42.578;23.416;2022-08-03T09:04:49;5.45;;;2.33;;
33150;SDS011;19508;42.578;23.416;2022-08-03T09:07:15;10.55;;;2.33;;
33150;SDS011;19508;42.578;23.416;2022-08-03T09:09:41;12.15;;;1.98;;
33150;SDS011;19508;42.578;23.416;2022-08-03T09:12:07;5.65;;;1.90;;
33150;SDS011;19508;42.578;23.416;2022-08-03T09:14:33;7.30;;;2.10;;
33150;SDS011;19508;42.578;23.416;2022-08-03T09:16:59;8.48;;;2.30;;
33150;SDS011;19508;42.578;23.416;2022-08-03T09:19:27;6.45;;;2.17;;
33150;SDS011;19508;42.578;23.416;2022-08-03T09:24:37;11.95;;;2.08;;
33150;SDS011;19508;42.578;23.416;2022-08-03T09:27:18;3.40;;;2.20;;
33150;SDS011;19508;42.578;23.416;2022-08-03T09:29:46;7.85;;;2.28;;
33150;SDS011;19508;42.578;23.416;2022-08-03T09:32:13;4.10;;;1.80;;
33150;SDS011;19508;42.578;23.416;2022-08-03T09:34:40;6.78;;;1.98;;
33150;SDS011;19508;42.578;23.416;2022-08-03T09:37:13;8.43;;;2.10;;
33150;SDS011;19508;42.578;23.416;2022-08-03T09:39:42;3.88;;;1.85;;
33150;SDS011;19508;42.578;23.416;2022-08-03T09:42:18;2.20;;;1.40;;
33150;SDS011;19508;42.578;23.416;2022-08-03T09:44:47;6.72;;;1.58;;
33150;SDS011;19508;42.578;23.416;2022-08-03T09:47:15;1.98;;;1.40;;
33150;SDS011;19508;42.578;23.416;2022-08-03T09:50:04;6.60;;;1.70;;
33150;SDS011;19508;42.578;23.416;2022-08-03T09:52:35;1.97;;;1.77;;
33150;SDS011;19508;42.578;23.416;2022-08-03T09:55:08;3.42;;;2.00;;
33150;SDS011;19508;42.578;23.416;2022-08-03T09:57:34;2.88;;;1.55;;
33150;SDS011;19508;42.578;23.416;2022-08-03T10:00:08;5.07;;;1.52;;
33150;SDS011;19508;42.578;23.416;2022-08-03T10:02:38;8.52;;;1.45;;
33150;SDS011;19508;42.578;23.416;2022-08-03T10:05:05;2.92;;;1.30;;
33150;SDS011;19508;42.578;23.416;2022-08-03T10:07:48;3.17;;;1.40;;
33150;SDS011;19508;42.578;23.416;2022-08-03T10:10:14;10.18;;;2.20;;
33150;SDS011;19508;42.578;23.416;2022-08-03T10:12:41;2.13;;;1.60;;
33150;SDS011;19508;42.578;23.416;2022-08-03T10:15:08;10.52;;;2.10;;
33150;SDS011;19508;42.578;23.416;2022-08-03T10:17:35;9.55;;;2.20;;
33150;SDS011;19508;42.578;23.416;2022-08-03T10:20:01;7.97;;;2.22;;
33150;SDS011;19508;42.578;23.416;2022-08-03T10:22:32;13.45;;;2.20;;
33150;SDS011;19508;42.578;23.416;2022-08-03T10:27:30;7.88;;;2.08;;
33150;SDS011;19508;42.578;23.416;2022-08-03T10:29:59;18.63;;;2.00;;
33150;SDS011;19508;42.578;23.416;2022-08-03T10:35:13;2.80;;;1.90;;
33150;SDS011;19508;42.578;23.416;2022-08-03T10:40:16;37.97;;;3.35;;
33150;SDS011;19508;42.578;23.416;2022-08-03T10:42:46;4.75;;;1.52;;
33150;SDS011;19508;42.578;23.416;2022-08-03T10:45:19;6.22;;;1.73;;
33150;SDS011;19508;42.578;23.416;2022-08-03T10:47:47;4.63;;;1.85;;
33150;SDS011;19508;42.578;23.416;2022-08-03T10:50:15;3.13;;;1.63;;
33150;SDS011;19508;42.578;23.416;2022-08-03T10:52:55;9.50;;;1.80;;
33150;SDS011;19508;42.578;23.416;2022-08-03T10:55:31;5.88;;;1.67;;
33150;SDS011;19508;42.578;23.416;2022-08-03T11:01:02;8.75;;;2.35;;
33150;SDS011;19508;42.578;23.416;2022-08-03T11:03:28;25.45;;;2.08;;
33150;SDS011;19508;42.578;23.416;2022-08-03T11:05:55;5.28;;;1.65;;
33150;SDS011;19508;42.578;23.416;2022-08-03T11:08:39;3.63;;;1.63;;
33150;SDS011;19508;42.578;23.416;2022-08-03T11:16:48;5.18;;;1.45;;
33150;SDS011;19508;42.578;23.416;2022-08-03T11:19:17;4.95;;;2.13;;
33150;SDS011;19508;42.578;23.416;2022-08-03T11:27:18;3.03;;;2.05;;
33150;SDS011;19508;42.578;23.416;2022-08-03T11:35:08;9.48;;;1.98;;
33150;SDS011;19508;42.578;23.416;2022-08-03T11:42:56;4.88;;;1.42;;
33150;SDS011;19508;42.578;23.416;2022-08-03T11:45:21;1.63;;;1.50;;
33150;SDS011;19508;42.578;23.416;2022-08-03T11:47:47;3.17;;;1.50;;
33150;SDS011;19508;42.578;23.416;2022-08-03T11:50:16;2.97;;;1.90;;
33150;SDS011;19508;42.578;23.416;2022-08-03T11:52:43;3.42;;;2.10;;
33150;SDS011;19508;42.578;23.416;2022-08-03T11:55:10;2.53;;;1.73;;
33150;SDS011;19508;42.578;23.416;2022-08-03T11:57:36;3.38;;;2.00;;
33150;SDS011;19508;42.578;23.416;2022-08-03T12:00:03;5.47;;;2.03;;
33150;SDS011;19508;42.578;23.416;2022-08-03T12:03:04;3.95;;;2.22;;
33150;SDS011;19508;42.578;23.416;2022-08-03T12:05:43;8.30;;;2.63;;
33150;SDS011;19508;42.578;23.416;2022-08-03T12:08:15;19.13;;;2.13;;
33150;SDS011;19508;42.578;23.416;2022-08-03T12:10:46;47.13;;;3.55;;
33150;SDS011;19508;42.578;23.416;2022-08-03T12:13:13;15.68;;;2.33;;
33150;SDS011;19508;42.578;23.416;2022-08-03T12:15:39;5.43;;;1.75;;
33150;SDS011;19508;42.578;23.416;2022-08-03T12:18:13;3.65;;;2.22;;
33150;SDS011;19508;42.578;23.416;2022-08-03T12:20:41;3.25;;;1.40;;
33150;SDS011;19508;42.578;23.416;2022-08-03T12:23:06;25.23;;;3.08;;
33150;SDS011;19508;42.578;23.416;2022-08-03T12:25:33;9.52;;;2.00;;
33150;SDS011;19508;42.578;23.416;2022-08-03T12:28:07;2.95;;;1.80;;
33150;SDS011;19508;42.578;23.416;2022-08-03T12:30:33;6.50;;;1.77;;
33150;SDS011;19508;42.578;23.416;2022-08-03T12:33:10;2.22;;;1.35;;
33150;SDS011;19508;42.578;23.416;2022-08-03T12:35:44;4.53;;;1.63;;
33150;SDS011;19508;42.578;23.416;2022-08-03T12:38:11;6.50;;;1.70;;
33150;SDS011;19508;42.578;23.416;2022-08-03T12:40:37;3.72;;;1.90;;
33150;SDS011;19508;42.578;23.416;2022-08-03T12:43:10;7.85;;;1.70;;
33150;SDS011;19508;42.578;23.416;2022-08-03T12:45:37;10.93;;;1.80;;
33150;SDS011;19508;42.578;23.416;2022-08-03T12:48:02;4.20;;;1.77;;
33150;SDS011;19508;42.578;23.416;2022-08-03T12:50:37;7.40;;;1.80;;
33150;SDS011;19508;42.578;23.416;2022-08-03T12:53:04;6.45;;;2.00;;
33150;SDS011;19508;42.578;23.416;2022-08-03T12:55:31;11.00;;;2.08;;
33150;SDS011;19508;42.578;23.416;2022-08-03T12:58:05;21.58;;;2.10;;
33150;SDS011;19508;42.578;23.416;2022-08-03T13:00:32;25.52;;;2.00;;
33150;SDS011;19508;42.578;23.416;2022-08-03T13:03:07;10.63;;;1.70;;
33150;SDS011;19508;42.578;23.416;2022-08-03T13:05:42;7.78;;;1.85;;
33150;SDS011;19508;42.578;23.416;2022-08-03T13:08:21;6.00;;;1.80;;
33150;SDS011;19508;42.578;23.416;2022-08-03T13:10:48;1.70;;;1.60;;
33150;SDS011;19508;42.578;23.416;2022-08-03T13:13:14;7.78;;;1.40;;
33150;SDS011;19508;42.578;23.416;2022-08-03T13:15:40;7.82;;;1.88;;
33150;SDS011;19508;42.578;23.416;2022-08-03T13:18:06;10.65;;;1.92;;
33150;SDS011;19508;42.578;23.416;2022-08-03T13:20:32;10.10;;;1.58;;
33150;SDS011;19508;42.578;23.416;2022-08-03T13:22:58;10.85;;;2.13;;
33150;SDS011;19508;42.578;23.416;2022-08-03T13:25:24;22.35;;;2.65;;
33150;SDS011;19508;42.578;23.416;2022-08-03T13:27:49;31.88;;;3.08;;
33150;SDS011;19508;42.578;23.416;2022-08-03T13:30:16;35.78;;;4.10;;
33150;SDS011;19508;42.578;23.416;2022-08-03T13:32:42;11.65;;;2.20;;
33150;SDS011;19508;42.578;23.416;2022-08-03T13:35:08;4.10;;;2.08;;
33150;SDS011;19508;42.578;23.416;2022-08-03T13:37:34;5.15;;;2.10;;
33150;SDS011;19508;42.578;23.416;2022-08-03T13:40:00;7.18;;;2.25;;
33150;SDS011;19508;42.578;23.416;2022-08-03T13:42:28;2.92;;;2.17;;
33150;SDS011;19508;42.578;23.416;2022-08-03T13:44:54;2.53;;;2.33;;
33150;SDS011;19508;42.578;23.416;2022-08-03T13:47:19;22.80;;;3.20;;
33150;SDS011;19508;42.578;23.416;2022-08-03T13:49:45;4.10;;;2.25;;
33150;SDS011;19508;42.578;23.416;2022-08-03T13:52:10;5.78;;;2.28;;
33150;SDS011;19508;42.578;23.416;2022-08-03T13:54:36;9.80;;;2.38;;
33150;SDS011;19508;42.578;23.416;2022-08-03T13:57:01;4.75;;;2.15;;
33150;SDS011;19508;42.578;23.416;2022-08-03T13:59:27;2.35;;;1.95;;
33150;SDS011;19508;42.578;23.416;2022-08-03T14:01:52;3.47;;;2.17;;
33150;SDS011;19508;42.578;23.416;2022-08-03T14:04:18;10.65;;;2.78;;
33150;SDS011;19508;42.578;23.416;2022-08-03T14:06:45;5.55;;;1.95;;
33150;SDS011;19508;42.578;23.416;2022-08-03T14:09:11;2.03;;;1.83;;
33150;SDS011;19508;42.578;23.416;2022-08-03T14:11:38;3.17;;;2.20;;
33150;SDS011;19508;42.578;23.416;2022-08-03T14:14:06;4.97;;;2.60;;
33150;SDS011;19508;42.578;23.416;2022-08-03T14:16:31;6.25;;;2.15;;
33150;SDS011;19508;42.578;23.416;2022-08-03T14:18:57;3.28;;;2.20;;
33150;SDS011;19508;42.578;23.416;2022-08-03T14:21:22;4.32;;;2.05;;
33150;SDS011;19508;42.578;23.416;2022-08-03T14:23:47;5.50;;;2.55;;
33150;SDS011;19508;42.578;23.416;2022-08-03T14:26:13;6.07;;;2.42;;
33150;SDS011;19508;42.578;23.416;2022-08-03T14:28:39;5.38;;;2.33;;
33150;SDS011;19508;42.578;23.416;2022-08-03T14:31:05;4.45;;;2.30;;
33150;SDS011;19508;42.578;23.416;2022-08-03T14:33:31;8.57;;;2.55;;
33150;SDS011;19508;42.578;23.416;2022-08-03T14:35:56;2.40;;;2.17;;
33150;SDS011;19508;42.578;23.416;2022-08-03T14:38:22;3.17;;;2.10;;
33150;SDS011;19508;42.578;23.416;2022-08-03T14:40:48;8.02;;;2.50;;
33150;SDS011;19508;42.578;23.416;2022-08-03T14:43:14;2.72;;;2.42;;
33150;SDS011;19508;42.578;23.416;2022-08-03T14:45:42;6.43;;;2.33;;
33150;SDS011;19508;42.578;23.416;2022-08-03T14:48:08;3.83;;;2.30;;
33150;SDS011;19508;42.578;23.416;2022-08-03T14:50:33;3.00;;;1.70;;
33150;SDS011;19508;42.578;23.416;2022-08-03T14:52:59;8.68;;;2.40;;
33150;SDS011;19508;42.578;23.416;2022-08-03T14:55:24;5.78;;;2.35;;
33150;SDS011;19508;42.578;23.416;2022-08-03T14:57:49;4.07;;;2.20;;
33150;SDS011;19508;42.578;23.416;2022-08-03T15:00:15;7.65;;;2.72;;
33150;SDS011;19508;42.578;23.416;2022-08-03T15:02:40;9.30;;;2.53;;
33150;SDS011;19508;42.578;23.416;2022-08-03T15:05:06;3.65;;;2.28;;
33150;SDS011;19508;42.578;23.416;2022-08-03T15:07:32;8.43;;;2.40;;
33150;SDS011;19508;42.578;23.416;2022-08-03T15:09:57;3.70;;;1.88;;
33150;SDS011;19508;42.578;23.416;2022-08-03T15:12:23;13.23;;;2.42;;
33150;SDS011;19508;42.578;23.416;2022-08-03T15:14:49;6.38;;;2.60;;
33150;SDS011;19508;42.578;23.416;2022-08-03T15:17:15;3.72;;;2.20;;
33150;SDS011;19508;42.578;23.416;2022-08-03T15:19:40;3.40;;;2.25;;
33150;SDS011;19508;42.578;23.416;2022-08-03T15:22:06;15.60;;;3.08;;
33150;SDS011;19508;42.578;23.416;2022-08-03T15:24:31;12.15;;;3.10;;
33150;SDS011;19508;42.578;23.416;2022-08-03T15:26:57;4.28;;;2.67;;
33150;SDS011;19508;42.578;23.416;2022-08-03T15:29:22;8.05;;;2.50;;
33150;SDS011;19508;42.578;23.416;2022-08-03T15:31:48;9.85;;;2.38;;
33150;SDS011;19508;42.578;23.416;2022-08-03T15:34:13;4.82;;;2.83;;
33150;SDS011;19508;42.578;23.416;2022-08-03T15:36:38;8.98;;;2.45;;
33150;SDS011;19508;42.578;23.416;2022-08-03T15:39:04;23.23;;;5.40;;